Time;durP1;ratioP1;P1;durP2;ratioP2;P2;SDS_P1;SDS_P2;PMS_P1;PMS_P2;Temp;Humidity;BMP_temperature;BMP_pressure;BME280_temperature;BME280_humidity;BME280_pressure;Samples;Min_cycle;Max_cycle;Signal;HPM_P1;HPM_P2
2022/12/20 00:02:04;;;;;;;42.57;21.00;;;1.30;99.90;;;;;;2603749;54;20900;31
2022/12/20 00:04:40;;;;;;;46.75;22.55;;;1.30;99.90;;;;;;2603413;54;20934;31
2022/12/20 00:07:18;;;;;;;34.85;20.50;;;1.20;99.90;;;;;;2603646;54;19941;31
2022/12/20 00:09:54;;;;;;;39.47;20.23;;;1.30;99.90;;;;;;2602927;54;20060;31
2022/12/20 00:12:30;;;;;;;40.50;20.40;;;1.20;99.90;;;;;;2602797;54;20849;31
2022/12/20 00:15:05;;;;;;;34.87;18.37;;;1.30;99.90;;;;;;2603464;54;20858;31
2022/12/20 00:17:40;;;;;;;38.43;20.87;;;1.30;99.90;;;;;;2603609;54;20049;31
2022/12/20 00:20:14;;;;;;;;;;;1.30;99.90;;;;;;2603681;54;20030;31
2022/12/20 00:22:53;;;;;;;33.30;18.08;;;1.30;99.90;;;;;;2603186;54;19941;31
2022/12/20 00:25:30;;;;;;;32.00;17.35;;;1.30;99.90;;;;;;2603544;54;20076;31
2022/12/20 00:28:08;;;;;;;34.20;16.37;;;1.30;99.90;;;;;;2603671;54;20889;31
2022/12/20 00:30:43;;;;;;;33.20;16.85;;;1.30;99.90;;;;;;2603685;54;20856;31
2022/12/20 00:33:19;;;;;;;32.58;17.10;;;1.30;99.90;;;;;;2603372;54;20030;31
2022/12/20 00:35:56;;;;;;;33.70;18.83;;;1.30;99.90;;;;;;2602547;54;20026;31
2022/12/20 00:38:35;;;;;;;35.70;17.77;;;1.30;99.90;;;;;;2617609;46;20864;31
2022/12/20 00:41:12;;;;;;;33.85;16.35;;;1.30;99.90;;;;;;2602680;54;20789;31
2022/12/20 00:43:47;;;;;;;30.90;17.38;;;1.30;99.90;;;;;;2603446;54;20104;31
2022/12/20 00:46:22;;;;;;;36.38;18.33;;;1.30;99.90;;;;;;2603362;54;20026;31
2022/12/20 00:49:02;;;;;;;30.67;16.58;;;1.30;99.90;;;;;;2603539;54;20030;31
2022/12/20 00:51:36;;;;;;;34.90;16.33;;;1.30;99.90;;;;;;2603606;54;20030;31
2022/12/20 00:54:15;;;;;;;29.30;15.60;;;1.40;99.90;;;;;;2603449;54;20022;31
2022/12/20 00:56:52;;;;;;;32.63;16.65;;;1.40;99.90;;;;;;2603426;54;20798;31
2022/12/20 00:59:27;;;;;;;25.75;16.25;;;1.40;99.90;;;;;;2603372;54;20802;31
2022/12/20 01:02:07;;;;;;;32.30;17.63;;;1.30;99.90;;;;;;2603184;54;20033;31
2022/12/20 01:04:42;;;;;;;33.03;17.92;;;1.30;99.90;;;;;;2602698;54;20845;31
2022/12/20 01:07:18;;;;;;;33.35;17.10;;;1.30;99.90;;;;;;2772457;31;21748;31
2022/12/20 01:09:58;;;;;;;28.25;15.60;;;1.30;99.90;;;;;;2602606;54;20074;31
2022/12/20 01:12:36;;;;;;;32.65;17.15;;;1.30;99.90;;;;;;2603507;54;20028;31
2022/12/20 01:15:14;;;;;;;31.60;16.60;;;1.30;99.90;;;;;;2618165;46;20033;31
2022/12/20 01:17:50;;;;;;;30.33;17.92;;;1.30;99.90;;;;;;2602592;54;20908;31
2022/12/20 01:20:27;;;;;;;32.00;16.40;;;1.30;99.90;;;;;;2602638;54;20897;31
2022/12/20 01:23:03;;;;;;;36.90;17.88;;;1.40;99.90;;;;;;2602667;54;20143;31
2022/12/20 01:25:40;;;;;;;27.73;15.00;;;1.30;99.90;;;;;;2701148;39;22443;31
2022/12/20 01:28:16;;;;;;;34.35;16.63;;;1.30;99.90;;;;;;2602626;54;20030;31
2022/12/20 01:30:58;;;;;;;28.20;15.70;;;1.30;99.90;;;;;;2603204;54;20034;31
2022/12/20 01:33:35;;;;;;;27.67;16.42;;;1.30;99.90;;;;;;2603210;54;20048;31
2022/12/20 01:36:11;;;;;;;28.07;15.97;;;1.40;99.90;;;;;;2603200;54;20027;31
2022/12/20 01:38:49;;;;;;;29.38;16.83;;;1.30;99.90;;;;;;2603256;54;20177;31
2022/12/20 01:41:26;;;;;;;34.67;18.50;;;1.30;99.90;;;;;;2603222;54;20884;31
2022/12/20 01:44:02;;;;;;;29.80;17.30;;;1.30;99.90;;;;;;2603292;54;20243;31
2022/12/20 01:46:38;;;;;;;31.35;16.95;;;1.30;99.90;;;;;;2603189;54;20789;31
2022/12/20 01:49:16;;;;;;;30.30;16.33;;;1.30;99.90;;;;;;2603416;54;20883;31
2022/12/20 01:51:53;;;;;;;32.83;17.35;;;1.30;99.90;;;;;;2603385;54;20046;31
2022/12/20 01:54:26;;;;;;;33.95;18.45;;;1.30;99.90;;;;;;2701752;39;22299;31
2022/12/20 01:57:05;;;;;;;37.42;18.33;;;1.30;99.90;;;;;;2621288;46;20071;31
2022/12/20 01:59:44;;;;;;;33.87;17.37;;;1.20;99.90;;;;;;2603100;54;20924;31
2022/12/20 02:02:21;;;;;;;32.20;16.27;;;1.30;99.90;;;;;;2602553;54;20285;31
2022/12/20 02:04:57;;;;;;;34.55;17.73;;;1.30;99.90;;;;;;2603028;54;20034;31
2022/12/20 02:07:33;;;;;;;33.45;17.83;;;1.30;99.90;;;;;;2603330;54;20030;31
2022/12/20 02:10:09;;;;;;;31.88;16.67;;;1.30;99.90;;;;;;2602901;54;20018;31
2022/12/20 02:12:47;;;;;;;;;;;1.30;99.90;;;;;;2603279;54;19965;31
2022/12/20 02:15:28;;;;;;;29.95;16.45;;;1.30;99.90;;;;;;2613938;47;19934;31
2022/12/20 02:18:09;;;;;;;29.67;16.38;;;1.30;99.90;;;;;;2603080;54;20073;31
2022/12/20 02:20:57;;;;;;;30.73;16.05;;;1.30;99.90;;;;;;2602993;54;19934;31
2022/12/20 02:23:30;;;;;;;32.72;18.13;;;1.30;99.90;;;;;;2603199;54;20898;31
2022/12/20 02:26:54;;;;;;;29.58;16.42;;;1.30;99.90;;;;;;2602981;54;20023;31
2022/12/20 02:29:35;;;;;;;26.85;16.25;;;1.30;99.90;;;;;;2602899;54;19935;31
2022/12/20 02:32:16;;;;;;;32.45;16.35;;;1.30;99.90;;;;;;2603247;54;20022;31
2022/12/20 02:34:53;;;;;;;32.70;16.55;;;1.30;99.90;;;;;;2603169;54;20056;31
2022/12/20 02:37:28;;;;;;;28.90;16.55;;;1.30;99.90;;;;;;2602999;54;20026;31
2022/12/20 02:40:05;;;;;;;32.05;16.92;;;1.40;99.90;;;;;;2602240;54;20948;31
2022/12/20 02:42:45;;;;;;;30.50;16.80;;;1.30;99.90;;;;;;2603038;54;20741;31
2022/12/20 02:45:20;;;;;;;32.50;18.48;;;1.40;99.90;;;;;;2603408;54;20927;31
2022/12/20 02:48:00;;;;;;;29.47;16.23;;;1.40;99.90;;;;;;2618197;46;20057;31
2022/12/20 02:50:40;;;;;;;29.40;15.77;;;1.40;99.90;;;;;;2603860;54;21145;31
2022/12/20 02:53:16;;;;;;;;;;;1.40;99.90;;;;;;2604006;54;20863;31
2022/12/20 02:55:56;;;;;;;27.25;14.50;;;1.40;99.90;;;;;;2603731;54;20008;31
2022/12/20 02:58:36;;;;;;;32.93;16.97;;;1.30;99.90;;;;;;2603701;54;20026;31
2022/12/20 03:01:14;;;;;;;32.15;17.05;;;1.40;99.90;;;;;;2603718;54;20779;31
2022/12/20 03:03:58;;;;;;;32.47;16.25;;;1.40;99.90;;;;;;2603919;54;20053;31
2022/12/20 03:06:34;;;;;;;30.83;16.73;;;1.40;99.90;;;;;;2603708;54;20859;31
2022/12/20 03:09:14;;;;;;;31.20;17.27;;;1.40;99.90;;;;;;2603666;54;20034;31
2022/12/20 03:11:50;;;;;;;32.70;17.30;;;1.40;99.90;;;;;;2603717;54;20062;31
2022/12/20 03:14:28;;;;;;;29.77;15.90;;;1.40;99.90;;;;;;2603720;54;20033;31
2022/12/20 03:17:06;;;;;;;31.52;16.25;;;1.40;99.90;;;;;;2622106;46;20026;31
2022/12/20 03:19:51;;;;;;;31.17;17.40;;;1.40;99.90;;;;;;2603556;54;20085;31
2022/12/20 03:22:29;;;;;;;31.45;16.30;;;1.40;99.90;;;;;;2603728;54;20030;31
2022/12/20 03:25:08;;;;;;;30.85;16.90;;;1.40;99.90;;;;;;2603013;54;20026;31
2022/12/20 03:27:46;;;;;;;31.23;16.20;;;1.40;99.90;;;;;;2621859;46;20027;31
2022/12/20 03:30:25;;;;;;;31.15;16.05;;;1.40;99.90;;;;;;2603787;54;20859;31
2022/12/20 03:33:05;;;;;;;33.33;17.15;;;1.40;99.90;;;;;;2603841;54;20839;31
2022/12/20 03:35:45;;;;;;;30.30;17.35;;;1.40;99.90;;;;;;2603654;54;20857;31
2022/12/20 03:38:27;;;;;;;29.70;15.65;;;1.40;99.90;;;;;;2603636;54;20027;31
2022/12/20 03:41:04;;;;;;;30.90;16.10;;;1.50;99.90;;;;;;2603555;54;20038;31
2022/12/20 03:43:41;;;;;;;31.80;17.13;;;1.40;99.90;;;;;;2603842;54;20035;31
2022/12/20 03:46:16;;;;;;;29.95;15.55;;;1.40;99.90;;;;;;2603517;54;20046;31
2022/12/20 03:48:52;;;;;;;30.00;16.58;;;1.40;99.90;;;;;;2603575;54;20093;31
2022/12/20 03:51:30;;;;;;;29.70;16.43;;;1.50;99.90;;;;;;2603531;54;20035;31
2022/12/20 03:54:06;;;;;;;31.65;15.15;;;1.40;99.90;;;;;;2603568;54;20035;31
2022/12/20 03:57:03;;;;;;;32.20;15.55;;;1.40;99.90;;;;;;2603359;54;20023;31
2022/12/20 03:59:38;;;;;;;29.38;16.38;;;1.40;99.90;;;;;;2614553;46;20033;31
2022/12/20 04:02:17;;;;;;;26.90;14.88;;;1.40;99.90;;;;;;2603655;54;20161;31
2022/12/20 04:04:52;;;;;;;32.53;16.23;;;1.50;99.90;;;;;;2603611;54;20894;31
2022/12/20 04:07:30;;;;;;;25.75;14.75;;;1.50;99.90;;;;;;2602871;54;20030;31
2022/12/20 04:10:08;;;;;;;30.75;15.02;;;1.60;99.90;;;;;;2603570;54;20081;31
2022/12/20 04:12:45;;;;;;;29.85;15.23;;;1.60;99.90;;;;;;2603711;54;20819;31
2022/12/20 04:15:27;;;;;;;29.92;15.57;;;1.70;99.90;;;;;;2622134;46;20920;31
2022/12/20 04:18:05;;;;;;;33.70;15.75;;;1.70;99.90;;;;;;2603459;54;20840;31
2022/12/20 04:20:38;;;;;;;27.30;15.60;;;1.70;99.90;;;;;;2603478;54;20108;31
2022/12/20 04:23:28;;;;;;;30.73;15.43;;;1.70;99.90;;;;;;2603308;54;20852;31
2022/12/20 04:26:02;;;;;;;29.85;15.02;;;1.70;99.90;;;;;;2603477;54;20041;31
2022/12/20 04:28:39;;;;;;;26.35;15.43;;;1.70;99.90;;;;;;2603392;54;20034;31
2022/12/20 04:31:16;;;;;;;31.10;14.83;;;1.70;99.90;;;;;;2603230;54;20908;31
2022/12/20 04:33:58;;;;;;;28.80;15.95;;;1.70;99.90;;;;;;2603533;54;20266;31
2022/12/20 04:36:38;;;;;;;32.25;17.48;;;1.70;99.90;;;;;;2603376;54;20991;31
2022/12/20 04:39:25;;;;;;;33.22;17.17;;;1.70;99.90;;;;;;2603555;54;20030;31
2022/12/20 04:42:20;;;;;;;30.30;15.20;;;1.70;99.90;;;;;;2603578;54;20022;31
2022/12/20 04:44:57;;;;;;;22.00;13.18;;;1.70;99.90;;;;;;2702204;39;21131;31
2022/12/20 04:47:38;;;;;;;25.35;15.10;;;1.70;99.90;;;;;;2602747;54;20889;31
2022/12/20 04:50:17;;;;;;;30.10;16.00;;;1.70;99.90;;;;;;2603330;54;20849;31
2022/12/20 04:55:49;;;;;;;30.30;15.52;;;1.70;99.90;;;;;;2603407;54;20153;31
2022/12/20 04:58:26;;;;;;;31.15;16.20;;;1.70;99.90;;;;;;2603307;54;20885;31
2022/12/20 05:01:06;;;;;;;30.85;17.23;;;1.70;99.90;;;;;;2603142;54;20056;31
2022/12/20 05:03:53;;;;;;;33.35;16.05;;;1.70;99.90;;;;;;2621623;46;20052;31
2022/12/20 05:06:29;;;;;;;30.25;15.77;;;1.70;99.90;;;;;;2603311;54;20034;31
2022/12/20 05:09:06;;;;;;;;;;;1.60;99.90;;;;;;2603411;54;20057;31
2022/12/20 05:11:45;;;;;;;32.03;16.02;;;1.60;99.90;;;;;;2621690;46;19938;31
2022/12/20 05:14:21;;;;;;;31.40;17.23;;;1.60;99.90;;;;;;2603333;54;20085;31
2022/12/20 05:16:59;;;;;;;31.52;17.90;;;1.50;99.90;;;;;;2603436;54;20879;31
2022/12/20 05:19:37;;;;;;;50.40;30.80;;;1.50;99.90;;;;;;2603231;54;20045;31
2022/12/20 05:28:07;;;;;;;36.30;20.65;;;1.50;99.90;;;;;;2603357;54;20026;31
2022/12/20 05:30:44;;;;;;;41.42;20.35;;;1.40;99.90;;;;;;2603497;54;20023;31
2022/12/20 05:33:21;;;;;;;36.80;18.85;;;1.40;99.90;;;;;;2603201;54;20026;31
2022/12/20 05:36:02;;;;;;;45.23;20.63;;;1.40;99.90;;;;;;2602646;54;20904;31
2022/12/20 05:38:37;;;;;;;31.70;17.90;;;1.30;99.90;;;;;;2603279;54;20393;31
2022/12/20 05:41:18;;;;;;;41.72;21.13;;;1.30;99.90;;;;;;2621619;46;20046;31
2022/12/20 05:43:59;;;;;;;40.13;19.23;;;1.30;99.90;;;;;;2603424;54;20036;31
2022/12/20 05:46:36;;;;;;;32.35;19.00;;;1.30;99.90;;;;;;2621841;46;20030;31
2022/12/20 05:49:18;;;;;;;38.10;19.70;;;1.30;99.90;;;;;;2603167;54;20023;31
2022/12/20 05:51:51;;;;;;;;;;;1.30;99.90;;;;;;2603645;54;20049;31
2022/12/20 05:54:33;;;;;;;39.67;20.50;;;1.30;99.90;;;;;;2621890;46;19934;31
2022/12/20 05:57:15;;;;;;;40.38;20.02;;;1.30;99.90;;;;;;2621339;46;20097;31
2022/12/20 05:59:55;;;;;;;42.00;20.90;;;1.30;99.90;;;;;;2603015;54;20029;31
2022/12/20 06:02:34;;;;;;;41.55;21.35;;;1.30;99.90;;;;;;2603149;54;20055;31
2022/12/20 06:05:12;;;;;;;41.42;21.10;;;1.30;99.90;;;;;;2621829;46;20908;31
2022/12/20 06:07:46;;;;;;;40.53;22.88;;;1.30;99.90;;;;;;2603065;54;20028;31
2022/12/20 06:10:24;;;;;;;44.92;25.27;;;1.40;99.90;;;;;;2602415;54;20895;31
2022/12/20 06:13:02;;;;;;;100.82;52.20;;;1.40;99.90;;;;;;2602351;54;20030;31
2022/12/20 06:15:45;;;;;;;61.40;33.10;;;1.40;99.90;;;;;;2603129;54;20026;31
2022/12/20 06:18:21;;;;;;;83.55;51.80;;;1.40;99.90;;;;;;2603287;54;20030;31
2022/12/20 06:21:02;;;;;;;56.83;33.72;;;1.40;99.90;;;;;;2603903;54;20883;31
2022/12/20 06:23:37;;;;;;;45.05;25.02;;;1.40;99.90;;;;;;2603901;54;20061;31
2022/12/20 06:26:17;;;;;;;39.95;21.25;;;1.40;99.90;;;;;;2604027;54;20046;31
2022/12/20 06:28:55;;;;;;;41.10;21.90;;;1.50;99.90;;;;;;2603907;54;20900;31
2022/12/20 06:31:45;;;;;;;41.88;21.08;;;1.50;99.90;;;;;;2603842;54;20088;31
2022/12/20 06:34:19;;;;;;;39.53;22.17;;;1.60;99.90;;;;;;2603725;54;20104;31
2022/12/20 06:36:58;;;;;;;42.75;23.02;;;1.60;99.90;;;;;;2621863;46;20023;31
2022/12/20 06:39:35;;;;;;;38.50;20.40;;;1.60;99.90;;;;;;2603884;54;20033;31
2022/12/20 06:42:13;;;;;;;40.65;21.20;;;1.60;99.90;;;;;;2702737;39;22249;31
2022/12/20 06:44:51;;;;;;;35.85;19.45;;;1.60;99.90;;;;;;2603833;54;20052;31
2022/12/20 06:47:31;;;;;;;45.27;23.73;;;1.60;99.90;;;;;;2621989;46;20023;31
2022/12/20 06:50:08;;;;;;;45.10;22.60;;;1.60;99.90;;;;;;2604074;54;20785;31
2022/12/20 06:52:47;;;;;;;50.28;25.63;;;1.70;99.90;;;;;;2603547;54;20162;31
2022/12/20 06:55:22;;;;;;;48.77;23.73;;;1.70;99.90;;;;;;2603681;54;20096;31
2022/12/20 06:57:58;;;;;;;;;;;1.70;99.90;;;;;;2604058;54;20254;31
2022/12/20 07:00:36;;;;;;;79.43;36.08;;;1.70;99.90;;;;;;2621979;46;19958;31
2022/12/20 07:03:15;;;;;;;65.75;30.45;;;1.80;99.90;;;;;;2702404;39;21093;31
2022/12/20 07:05:54;;;;;;;52.45;25.95;;;1.80;99.90;;;;;;2603651;54;20879;31
2022/12/20 07:08:29;;;;;;;46.88;24.45;;;1.80;99.90;;;;;;2701982;39;21562;31
2022/12/20 07:11:08;;;;;;;46.83;24.08;;;1.80;99.90;;;;;;2603815;54;20830;31
2022/12/20 07:13:42;;;;;;;43.00;22.10;;;1.80;99.90;;;;;;2603727;54;20133;31
2022/12/20 07:16:17;;;;;;;44.65;24.63;;;1.80;99.90;;;;;;2602813;54;20046;31
2022/12/20 07:18:56;;;;;;;45.92;23.27;;;1.80;99.90;;;;;;2603519;54;20046;31
2022/12/20 07:21:34;;;;;;;47.23;26.13;;;1.80;99.90;;;;;;2603774;54;20941;31
2022/12/20 07:24:10;;;;;;;50.95;27.38;;;1.80;99.90;;;;;;2603405;54;20932;31
2022/12/20 07:26:47;;;;;;;53.58;27.42;;;1.80;99.90;;;;;;2603619;54;20883;31
2022/12/20 07:29:24;;;;;;;49.65;25.55;;;1.80;99.90;;;;;;2603525;54;20029;31
2022/12/20 07:32:01;;;;;;;59.60;30.90;;;1.90;99.90;;;;;;2603731;54;20030;31
2022/12/20 07:34:39;;;;;;;51.00;25.13;;;2.00;99.90;;;;;;2603761;54;20030;31
2022/12/20 07:37:15;;;;;;;47.83;26.48;;;2.10;99.90;;;;;;2603387;54;20042;31
2022/12/20 07:39:51;;;;;;;51.83;27.80;;;2.10;99.90;;;;;;2603822;54;20026;31
2022/12/20 07:42:25;;;;;;;61.42;32.30;;;2.10;99.90;;;;;;2602964;54;20031;31
2022/12/20 07:45:11;;;;;;;45.10;22.25;;;2.10;99.90;;;;;;2603682;54;20026;31
2022/12/20 07:47:49;;;;;;;48.75;23.08;;;2.10;99.90;;;;;;2603495;54;20882;31
2022/12/20 07:50:31;;;;;;;39.75;21.45;;;2.10;99.90;;;;;;2702046;39;21212;31
2022/12/20 07:53:06;;;;;;;50.10;25.42;;;2.20;99.90;;;;;;2603653;54;20033;31
2022/12/20 07:58:33;;;;;;;48.10;25.35;;;2.20;99.90;;;;;;2603567;54;20033;31
2022/12/20 08:01:12;;;;;;;46.63;23.40;;;2.20;99.90;;;;;;2622383;46;20915;31
2022/12/20 08:03:51;;;;;;;56.78;30.02;;;2.30;99.90;;;;;;2603543;54;20131;31
2022/12/20 08:06:30;;;;;;;54.15;27.75;;;2.20;99.90;;;;;;2603413;54;20030;31
2022/12/20 08:09:07;;;;;;;50.15;25.55;;;2.30;99.90;;;;;;2603482;54;20026;31
2022/12/20 08:11:48;;;;;;;48.35;24.75;;;2.30;99.90;;;;;;2603315;54;20023;31
2022/12/20 08:14:25;;;;;;;41.92;23.27;;;2.40;99.90;;;;;;2621945;46;20096;31
2022/12/20 08:17:01;;;;;;;52.42;23.35;;;2.30;99.90;;;;;;2621768;46;20036;31
2022/12/20 08:19:37;;;;;;;45.10;23.38;;;2.40;99.90;;;;;;2603510;54;20901;31
2022/12/20 08:22:18;;;;;;;45.60;23.95;;;2.40;99.90;;;;;;2603573;54;20026;31
2022/12/20 08:25:01;;;;;;;40.40;22.45;;;2.40;99.90;;;;;;2603344;54;20049;31
2022/12/20 08:27:37;;;;;;;51.95;25.48;;;2.40;99.90;;;;;;2603660;54;20800;31
2022/12/20 08:30:15;;;;;;;42.35;22.85;;;2.40;99.90;;;;;;2603435;54;20834;31
2022/12/20 08:32:50;;;;;;;48.05;24.33;;;2.40;99.90;;;;;;2603547;54;20026;31
2022/12/20 08:35:26;;;;;;;42.10;21.58;;;2.40;99.90;;;;;;2603327;54;20801;31
2022/12/20 08:38:06;;;;;;;46.35;22.80;;;2.40;99.90;;;;;;2603500;54;20172;31
2022/12/20 08:40:43;;;;;;;43.60;22.20;;;2.50;99.90;;;;;;2603337;54;20756;31
2022/12/20 08:43:18;;;;;;;44.40;22.60;;;2.50;99.90;;;;;;2603323;54;20850;31
2022/12/20 08:45:57;;;;;;;43.30;21.90;;;2.60;99.90;;;;;;2603263;54;20026;31
2022/12/20 08:48:34;;;;;;;41.23;21.67;;;2.60;99.90;;;;;;2603350;54;20096;31
2022/12/20 08:51:12;;;;;;;38.63;20.23;;;2.60;99.90;;;;;;2621741;46;20055;31
2022/12/20 08:53:51;;;;;;;43.58;21.63;;;2.60;99.90;;;;;;2603282;54;20872;31
2022/12/20 08:56:31;;;;;;;37.35;20.40;;;2.70;99.90;;;;;;2603578;54;20026;31
2022/12/20 08:59:09;;;;;;;40.58;19.83;;;2.70;99.90;;;;;;2603083;54;20867;31
2022/12/20 09:01:43;;;;;;;41.10;21.60;;;2.70;99.90;;;;;;2603415;54;20085;31
2022/12/20 09:04:19;;;;;;;42.37;21.07;;;2.80;99.90;;;;;;2603345;54;20100;31
2022/12/20 09:06:55;;;;;;;40.03;21.13;;;2.80;99.90;;;;;;2603350;54;20266;31
2022/12/20 09:09:33;;;;;;;36.25;19.50;;;2.80;99.90;;;;;;2603104;54;20077;31
2022/12/20 09:12:07;;;;;;;44.07;21.07;;;2.90;99.90;;;;;;2603192;54;20030;31
2022/12/20 09:14:44;;;;;;;37.70;20.15;;;3.00;99.90;;;;;;2603281;54;21115;31
2022/12/20 09:17:21;;;;;;;39.40;20.50;;;3.00;99.90;;;;;;2603491;54;20165;31
2022/12/20 09:19:57;;;;;;;41.50;20.50;;;3.20;99.90;;;;;;2603406;54;20153;31
2022/12/20 09:22:34;;;;;;;48.20;22.27;;;3.20;99.90;;;;;;2603192;54;20034;31
2022/12/20 09:25:13;;;;;;;37.10;19.63;;;3.30;99.90;;;;;;2603203;54;20046;31
2022/12/20 09:27:52;;;;;;;48.05;22.95;;;3.20;99.90;;;;;;2603601;54;20081;31
2022/12/20 09:30:31;;;;;;;44.13;22.75;;;3.30;99.90;;;;;;2602640;54;20027;31
2022/12/20 09:33:07;;;;;;;42.90;23.57;;;3.20;99.90;;;;;;2603148;54;20965;31
2022/12/20 09:35:49;;;;;;;43.30;23.27;;;3.20;99.90;;;;;;2603274;54;20262;31
2022/12/20 09:38:24;;;;;;;44.80;22.05;;;3.20;99.90;;;;;;2603392;54;20789;31
2022/12/20 09:41:07;;;;;;;44.77;21.93;;;3.20;99.90;;;;;;2603442;54;20044;31
2022/12/20 09:43:41;;;;;;;47.92;24.13;;;3.20;99.90;;;;;;2603159;54;20841;31
2022/12/20 09:46:19;;;;;;;40.42;21.70;;;3.20;99.90;;;;;;2621340;46;20788;31
2022/12/20 09:48:56;;;;;;;43.03;22.35;;;3.30;99.90;;;;;;2603124;54;20022;31
2022/12/20 09:51:31;;;;;;;44.83;22.25;;;3.30;99.90;;;;;;2603361;54;20033;31
2022/12/20 09:54:13;;;;;;;39.72;19.60;;;3.30;99.90;;;;;;2603250;54;20877;31
2022/12/20 09:56:57;;;;;;;47.50;23.45;;;3.40;99.90;;;;;;2621657;46;20894;31
2022/12/20 09:59:33;;;;;;;44.80;22.10;;;3.40;99.90;;;;;;2603276;54;20827;31
2022/12/20 10:02:16;;;;;;;42.47;21.75;;;3.50;99.90;;;;;;2603355;54;20030;31
2022/12/20 10:05:15;;;;;;;45.25;22.85;;;3.60;99.90;;;;;;2603330;54;20085;31
2022/12/20 10:07:56;;;;;;;50.60;23.75;;;3.60;99.90;;;;;;2603202;54;20049;31
2022/12/20 10:10:56;;;;;;;42.05;21.65;;;3.60;99.90;;;;;;2621439;46;20115;31
2022/12/20 10:13:45;;;;;;;43.30;21.75;;;3.70;99.90;;;;;;2603262;54;20038;31
2022/12/20 10:16:28;;;;;;;43.35;22.23;;;3.70;99.90;;;;;;2603300;54;20022;31
2022/12/20 10:19:12;;;;;;;47.70;22.23;;;3.70;99.90;;;;;;2603213;54;20029;31
2022/12/20 10:21:49;;;;;;;44.25;22.48;;;3.80;99.90;;;;;;2602971;54;20030;31
2022/12/20 10:24:29;;;;;;;45.60;21.45;;;3.70;99.90;;;;;;2603036;54;20023;31
2022/12/20 10:27:09;;;;;;;41.45;21.10;;;3.70;99.90;;;;;;2602718;54;20029;31
2022/12/20 10:29:46;;;;;;;50.35;21.85;;;3.60;99.90;;;;;;2701589;39;20501;31
2022/12/20 10:32:23;;;;;;;42.25;22.35;;;3.70;99.90;;;;;;2603193;54;20804;31
2022/12/20 10:35:04;;;;;;;43.50;21.45;;;3.70;99.90;;;;;;2602894;54;20873;31
2022/12/20 10:37:39;;;;;;;48.80;22.20;;;3.70;99.90;;;;;;2701371;39;20615;31
2022/12/20 10:40:35;;;;;;;41.45;21.50;;;3.70;99.90;;;;;;2603090;54;20035;31
2022/12/20 10:43:29;;;;;;;38.55;19.30;;;3.70;99.90;;;;;;2602956;54;20903;31
2022/12/20 10:46:10;;;;;;;40.15;21.58;;;3.80;99.90;;;;;;2603077;54;20031;31
2022/12/20 10:48:49;;;;;;;43.75;22.75;;;3.90;99.90;;;;;;2603080;54;20584;31
2022/12/20 10:51:26;;;;;;;43.00;22.58;;;3.90;99.90;;;;;;2602885;54;20101;31
2022/12/20 10:54:01;;;;;;;43.67;22.92;;;4.00;99.90;;;;;;2602850;54;20034;31
2022/12/20 10:56:38;;;;;;;45.05;22.40;;;4.10;99.90;;;;;;2701499;39;20612;31
2022/12/20 10:59:29;;;;;;;46.95;24.10;;;4.10;99.90;;;;;;2602723;54;20809;31
2022/12/20 11:02:04;;;;;;;47.75;23.33;;;4.20;99.90;;;;;;2602937;54;20565;31
2022/12/20 11:04:45;;;;;;;45.30;24.40;;;4.30;99.90;;;;;;2602608;54;20911;31
2022/12/20 11:07:25;;;;;;;44.83;24.30;;;4.40;99.90;;;;;;2603606;54;20037;31
2022/12/20 11:10:02;;;;;;;48.50;23.88;;;4.40;99.90;;;;;;2603731;54;20893;31
2022/12/20 11:12:38;;;;;;;50.07;24.23;;;4.50;99.90;;;;;;2603554;54;20918;31
2022/12/20 11:15:21;;;;;;;50.22;24.67;;;4.50;99.90;;;;;;2603695;54;20242;31
2022/12/20 11:18:08;;;;;;;44.92;23.75;;;4.60;99.90;;;;;;2603585;54;20119;31
2022/12/20 11:20:47;;;;;;;45.73;24.40;;;4.60;99.90;;;;;;2603408;54;20939;31
2022/12/20 11:23:25;;;;;;;53.70;23.70;;;4.60;99.90;;;;;;2621894;46;20154;31
2022/12/20 11:26:17;;;;;;;49.38;23.88;;;4.50;99.90;;;;;;2603724;54;20877;31
2022/12/20 11:29:00;;;;;;;54.15;24.30;;;4.50;99.90;;;;;;2603693;54;20105;31
2022/12/20 11:31:42;;;;;;;53.40;23.20;;;4.50;99.90;;;;;;2603621;54;20824;31
2022/12/20 11:34:23;;;;;;;45.67;22.70;;;4.50;99.90;;;;;;2603492;54;20104;31
2022/12/20 11:37:06;;;;;;;43.78;22.67;;;4.50;99.90;;;;;;2603710;54;20027;31
2022/12/20 11:39:41;;;;;;;45.57;22.97;;;4.50;99.90;;;;;;2603640;54;20917;31
2022/12/20 11:42:18;;;;;;;30.70;17.20;;;4.50;99.90;;;;;;2603628;54;20239;31
2022/12/20 11:44:58;;;;;;;50.17;27.33;;;4.60;99.90;;;;;;2773163;31;25072;31
2022/12/20 11:48:05;;;;;;;53.58;26.08;;;4.70;99.90;;;;;;2603619;54;20800;31
2022/12/20 11:50:47;;;;;;;52.95;26.15;;;4.70;99.90;;;;;;2603527;54;20173;31
2022/12/20 11:53:28;;;;;;;55.15;26.20;;;4.70;99.90;;;;;;2603491;54;20910;31
2022/12/20 11:56:05;;;;;;;50.85;25.30;;;4.70;99.90;;;;;;2603580;54;20889;31
2022/12/20 11:58:50;;;;;;;53.33;27.17;;;4.70;99.90;;;;;;2603464;54;20089;31
2022/12/20 12:01:28;;;;;;;52.35;27.92;;;4.70;99.90;;;;;;2603676;54;20030;31
2022/12/20 12:04:08;;;;;;;54.35;28.38;;;4.80;99.90;;;;;;2603470;54;20906;31
2022/12/20 12:06:45;;;;;;;59.92;29.60;;;4.80;99.90;;;;;;2603815;54;20081;31
2022/12/20 12:09:26;;;;;;;51.00;27.85;;;4.70;99.90;;;;;;2603527;54;20029;31
2022/12/20 12:12:04;;;;;;;55.90;27.05;;;4.70;99.90;;;;;;2621785;46;20064;31
2022/12/20 12:14:50;;;;;;;54.13;28.63;;;4.70;99.90;;;;;;2603228;54;20046;31
2022/12/20 12:17:28;;;;;;;52.07;27.67;;;4.60;99.90;;;;;;2602849;54;20885;31
2022/12/20 12:20:20;;;;;;;50.57;26.47;;;4.60;99.90;;;;;;2621958;46;20048;31
2022/12/20 12:22:57;;;;;;;50.95;25.25;;;4.50;99.90;;;;;;2603652;54;20022;31
2022/12/20 12:25:34;;;;;;;52.17;25.63;;;4.50;99.90;;;;;;2603223;54;20052;31
2022/12/20 12:28:11;;;;;;;51.17;27.63;;;4.40;99.90;;;;;;2603490;54;20893;31
2022/12/20 12:30:52;;;;;;;51.83;27.40;;;4.40;99.90;;;;;;2603316;54;20944;31
2022/12/20 12:33:30;;;;;;;63.30;29.80;;;4.40;99.90;;;;;;2621947;46;20066;31
2022/12/20 12:36:24;;;;;;;70.68;32.17;;;4.30;99.90;;;;;;2603582;54;20085;31
2022/12/20 12:39:22;;;;;;;68.97;33.08;;;4.30;99.90;;;;;;2603322;54;20053;31
2022/12/20 12:42:22;;;;;;;62.95;31.15;;;4.30;99.90;;;;;;2622143;46;20055;31
2022/12/20 12:44:54;;;;;;;63.25;32.50;;;4.30;99.90;;;;;;2603455;54;20023;31
2022/12/20 12:47:32;;;;;;;57.83;30.83;;;4.30;99.90;;;;;;2603508;54;20050;31
2022/12/20 12:50:06;;;;;;;55.15;29.40;;;4.30;99.90;;;;;;2603396;54;20026;31
2022/12/20 12:52:48;;;;;;;56.17;28.88;;;4.30;99.90;;;;;;2603429;54;20042;31
2022/12/20 12:55:44;;;;;;;62.83;31.00;;;4.40;99.90;;;;;;2603450;54;20046;31
2022/12/20 12:58:18;;;;;;;59.40;29.23;;;4.40;99.90;;;;;;2603472;54;20158;31
2022/12/20 13:00:57;;;;;;;57.67;27.50;;;4.40;99.90;;;;;;2603350;54;20085;31
2022/12/20 13:03:47;;;;;;;47.17;26.67;;;4.30;99.90;;;;;;2602941;54;20030;31
2022/12/20 13:06:54;;;;;;;48.40;25.25;;;4.20;99.90;;;;;;2603473;54;20022;31
2022/12/20 13:15:40;;;;;;;53.38;26.98;;;4.20;99.90;;;;;;2601520;54;20088;31
2022/12/20 13:18:28;;;;;;;47.97;24.42;;;4.20;99.90;;;;;;2602563;54;20842;31
2022/12/20 13:21:30;;;;;;;45.20;24.35;;;4.10;99.90;;;;;;2603054;54;20072;31
2022/12/20 13:24:32;;;;;;;50.50;24.02;;;4.10;99.90;;;;;;2603158;54;20026;31
2022/12/20 13:27:25;;;;;;;50.15;25.35;;;4.00;99.90;;;;;;2603018;54;20859;31
2022/12/20 13:30:24;;;;;;;48.60;23.77;;;4.00;99.90;;;;;;2603293;54;20030;31
2022/12/20 13:33:01;;;;;;;48.40;24.15;;;3.90;99.90;;;;;;2603146;54;20828;31
2022/12/20 13:35:56;;;;;;;46.70;25.10;;;3.90;99.90;;;;;;2602398;54;20038;31
2022/12/20 13:38:58;;;;;;;50.00;25.57;;;3.80;99.90;;;;;;2603265;54;20969;31
2022/12/20 13:41:46;;;;;;;48.63;24.85;;;3.80;99.90;;;;;;2621324;46;20087;31
2022/12/20 13:44:36;;;;;;;53.63;25.55;;;3.70;99.90;;;;;;2603215;54;20915;31
2022/12/20 13:47:43;;;;;;;49.63;25.27;;;3.70;99.90;;;;;;2603092;54;20964;31
2022/12/20 13:50:35;;;;;;;55.38;28.50;;;3.60;99.90;;;;;;2603101;54;20250;31
2022/12/20 13:53:20;;;;;;;49.42;26.40;;;3.60;99.90;;;;;;2602749;54;20037;31
2022/12/20 13:55:56;;;;;;;53.78;26.02;;;3.60;99.90;;;;;;2603321;54;20033;31
2022/12/20 13:58:33;;;;;;;55.30;28.98;;;3.60;99.90;;;;;;2603118;54;20090;31
2022/12/20 14:01:09;;;;;;;47.85;25.13;;;3.60;99.90;;;;;;2603230;54;20048;31
2022/12/20 14:03:47;;;;;;;76.70;34.27;;;3.50;99.90;;;;;;2603377;54;20038;31
2022/12/20 14:06:24;;;;;;;53.33;26.02;;;3.50;99.90;;;;;;2603219;54;20026;31
2022/12/20 14:09:04;;;;;;;45.70;23.42;;;3.50;99.90;;;;;;2603103;54;20854;31
2022/12/20 14:11:42;;;;;;;54.58;26.45;;;3.40;99.90;;;;;;2603417;54;20030;31